Portada
METAR-TAF:

METAR-TAF

Aeroports :

Sevilla, Espanya

latitud: 37-25N, longitud: 005-54W, altitud: 34 m

Observació

L'informe es va fer fa 15 minuts, a les 21:00 UTC
Vent 7 kt del Nord-Est
Temperatura 11°C
Humitat 62%
Pressió 1015 hPa
Visibilitat 10 km o més
sense núvols per sota de 1500 mi sense presència de cumulonimbus.

METAR: LEZL 202100Z 04007KT CAVOK 11/04 Q1015 NOSIG

Hora: 22:15 (21:15 UTC)

Pronòstic

L'informe es va fer fa 1 hora i 15 minuts, a les 20:00 UTC
Pronòstic vàlid del 20 a les 21 UTC al 21 a les 21 UTC
Vent 8 kt del Nord-Est
Visibilitat 10 km o més
Escasses núvols a una alçada de 4500 ft

TAF: LEZL 202000Z 2021/2121 04008KT 9999 FEW045 TX15/2115Z TN06/2107Z

Observacions i pronòstics meteorològics de més de 4000 aeroports (METAR i TAF).

Les estacions disponibles són els punts grocs i vermells al mapa.

Posi el ratolí al punt desitjat per veure el nom de l'estació.

Feu clic per veure les observacions i els pronòstics meteorològics.

Per canviar el mapa: feu clic els botons verds amb una creu de color negre per apropar; al botó verd amb un guió per allunyar la imatge; o en les fletxes verdes per a mapes adjacents.


METAR-TAF: